HomeShort term forecast

Short term forecast

Graphical weather forecast for the next 48 hours for Montreal:
Short term forecast
This weather forecast is automatically refreshed every 3 hours.

Hourly Experimental Forecast for the next 48 hours ®

Overall summary: Foggy tomorrow morning.

 Date & Hour   Temp   Feel   Baro   Hum   Speed & Bearing   Precipitation   Visibility   Cloud cover   Conditions 
 18/01/2018 - 23:00  -5.6°C  -11.1°C  1013.4 hPa  84%  14.4 km/h   --  16.1km  91%  Mostly Cloudy 
 19/01/2018 - 00:00  -5.8°C  -11.4°C  1013.2 hPa  85%  14.7 km/h   --  16.1km  93%  Mostly Cloudy 
 19/01/2018 - 01:00  -5.7°C  -11.2°C  1013.0 hPa  85%  14.2 km/h   --  16.1km  95%  Overcast 
 19/01/2018 - 02:00  -5.4°C  -10.7°C  1013.1 hPa  84%  13.3 km/h   --  16.1km  96%  Overcast 
 19/01/2018 - 03:00  -5.2°C  -10.1°C  1013.2 hPa  82%  12.2 km/h   --  16.1km  96%  Overcast 
 19/01/2018 - 04:00  -5.1°C  -9.7°C  1013.2 hPa  81%  11.2 km/h   --  16.1km  96%  Overcast 
 19/01/2018 - 05:00  -5.2°C  -9.5°C  1012.9 hPa  80%  10.1 km/h   --  16.1km  92%  Mostly Cloudy 
 19/01/2018 - 06:00  -5.5°C  -9.5°C  1012.5 hPa  79%  9.0 km/h   0.01 mm/h  7.6km  88%  Mostly Cloudy 
 19/01/2018 - 07:00  -5.5°C  -9.4°C  1012.2 hPa  80%  8.6 km/h   0.02 mm/h  0.2km  85%  Foggy 
 19/01/2018 - 08:00  -4.9°C  -9.0°C  1012.4 hPa  81%  9.4 km/h   0.02 mm/h  0.1km  87%  Foggy 
 19/01/2018 - 09:00  -4.0°C  -8.3°C  1012.7 hPa  83%  10.8 km/h   0.01 mm/h  0.1km  92%  Foggy 
 19/01/2018 - 10:00  -3.2°C  -7.8°C  1012.8 hPa  84%  12.2 km/h   0.02 mm/h  0.5km  95%  Foggy 
 19/01/2018 - 11:00  -2.7°C  -7.4°C  1012.4 hPa  85%  13.6 km/h   0.02 mm/h  3.6km  97%  Overcast 
 19/01/2018 - 12:00  -2.1°C  -7.0°C  1011.8 hPa  85%  14.9 km/h   0.02 mm/h  7.7km  98%  Overcast 
 19/01/2018 - 13:00  -1.6°C  -6.6°C  1011.3 hPa  84%  15.7 km/h   0.02 mm/h  10.0km  98%  Overcast 
 19/01/2018 - 14:00  -1.4°C  -6.2°C  1010.7 hPa  84%  15.4 km/h   0.02 mm/h  7.8km  98%  Overcast 
 19/01/2018 - 15:00  -1.3°C  -5.9°C  1010.2 hPa  84%  14.6 km/h   0.02 mm/h  3.7km  99%  Overcast 
 19/01/2018 - 16:00  -1.2°C  -5.8°C  1009.7 hPa  84%  14.4 km/h   0.03 mm/h  2.7km  99%  Foggy 
 19/01/2018 - 17:00  -1.3°C  -6.1°C  1009.4 hPa  84%  15.6 km/h   0.03 mm/h  8.8km  99%  Overcast 
 19/01/2018 - 18:00  -1.5°C  -6.7°C  1009.3 hPa  85%  17.5 km/h   0.04 mm/h  16.1km  100%  Overcast 
 19/01/2018 - 19:00  -1.7°C  -7.2°C  1009.0 hPa  85%  19.0 km/h   0.05 mm/h  16.1km  100%  Overcast 
 19/01/2018 - 20:00  -1.8°C  -7.4°C  1008.5 hPa  85%  19.3 km/h   0.03 mm/h  16.1km  97%  Overcast 
 19/01/2018 - 21:00  -1.9°C  -7.5°C  1007.9 hPa  84%  19.0 km/h   0.02 mm/h  12.0km  92%  Mostly Cloudy 
 19/01/2018 - 22:00  -1.8°C  -7.3°C  1007.1 hPa  83%  18.8 km/h   0.02 mm/h  7.8km  90%  Mostly Cloudy 
 19/01/2018 - 23:00  -1.5°C  -6.9°C  1006.2 hPa  82%  19.0 km/h   0.01 mm/h  10.9km  92%  Mostly Cloudy 
 20/01/2018 - 00:00  -1.1°C  -6.5°C  1005.1 hPa  81%  19.3 km/h   0.03 mm/h  16.1km  95%  Overcast 
 20/01/2018 - 01:00  -0.6°C  -6.0°C  1004.1 hPa  81%  20.2 km/h   0.06 mm/h  16.1km  98%  Overcast 
 20/01/2018 - 02:00  -0.2°C  -5.7°C  1003.2 hPa  80%  21.9 km/h   0.09 mm/h  16.1km  98%  Overcast 
 20/01/2018 - 03:00  0.3°C  -5.4°C  1002.4 hPa  80%  24.2 km/h   0.13 mm/h  16.1km  99%  Breezy and Overcast 
 20/01/2018 - 04:00  0.7°C  -5.1°C  1001.8 hPa  80%  26.4 km/h   0.15 mm/h  16.1km  100%  Breezy and Overcast 
 20/01/2018 - 05:00  1.0°C  -5.1°C  1001.6 hPa  79%  28.9 km/h   0.11 mm/h  16.1km  100%  Breezy and Overcast 
 20/01/2018 - 06:00  1.1°C  -5.2°C  1001.6 hPa  78%  31.2 km/h   0.06 mm/h  16.1km  100%  Breezy and Overcast 
 20/01/2018 - 07:00  1.1°C  -5.3°C  1001.9 hPa  79%  33.0 km/h   0.04 mm/h  16.1km  100%  Breezy and Overcast 
 20/01/2018 - 08:00  1.2°C  -5.3°C  1002.4 hPa  79%  33.9 km/h   0.02 mm/h  16.1km  100%  Breezy and Overcast 
 20/01/2018 - 09:00  1.2°C  -5.3°C  1003.1 hPa  81%  34.3 km/h   0.01 mm/h  16.1km  99%  Breezy and Overcast 
 20/01/2018 - 10:00  1.2°C  -5.3°C  1003.8 hPa  83%  34.3 km/h   0.01 mm/h  16.1km  99%  Breezy and Overcast 
 20/01/2018 - 11:00  1.4°C  -5.0°C  1004.1 hPa  85%  34.3 km/h   0.01 mm/h  16.1km  99%  Breezy and Overcast 
 20/01/2018 - 12:00  1.7°C  -4.6°C  1004.3 hPa  86%  34.0 km/h   0.01 mm/h  16.1km  99%  Breezy and Overcast 
 20/01/2018 - 13:00  2.1°C  -4.1°C  1004.6 hPa  86%  33.5 km/h   0.01 mm/h  16.1km  98%  Breezy and Overcast 
 20/01/2018 - 14:00  2.3°C  -3.6°C  1005.0 hPa  86%  32.7 km/h   0.01 mm/h  16.1km  98%  Breezy and Overcast 
 20/01/2018 - 15:00  2.6°C  -3.3°C  1005.5 hPa  85%  31.5 km/h   0.01 mm/h  16.1km  98%  Breezy and Overcast 
 20/01/2018 - 16:00  2.6°C  -3.1°C  1006.3 hPa  85%  30.4 km/h   0.01 mm/h  16.1km  97%  Breezy and Overcast 
 20/01/2018 - 17:00  2.6°C  -3.0°C  1007.4 hPa  84%  29.5 km/h   0.01 mm/h  16.1km  91%  Breezy and Mostly Cloudy 
 20/01/2018 - 18:00  2.4°C  -3.2°C  1008.7 hPa  85%  28.7 km/h   0.02 mm/h  16.1km  83%  Breezy and Mostly Cloudy 
 20/01/2018 - 19:00  2.0°C  -3.6°C  1010.0 hPa  85%  27.5 km/h   0.03 mm/h  16.1km  73%  Breezy and Mostly Cloudy 
 20/01/2018 - 20:00  1.4°C  -4.2°C  1011.0 hPa  87%  25.6 km/h   0.02 mm/h  16.1km  59%  Breezy and Partly Cloudy 
 20/01/2018 - 21:00  0.8°C  -4.7°C  1011.9 hPa  87%  23.2 km/h   0.01 mm/h  16.1km  42%  Partly Cloudy 
 20/01/2018 - 22:00  0.3°C  -5.0°C  1012.7 hPa  87%  21.2 km/h   --  16.1km  33%  Partly Cloudy 
Test

 

Past weather and reports

Past weatherFind in this section the past weather conditions, weather archive, graphics, reports and statistics.

Current conditions

Current weather condition for MontrealAll you need to know about the current weather conditions for Montreal. Weather data is updated every 10 minutes.

Weather forecast

Current Montreal weatherSince 2004, celinium.com website has provided accurate weather forecast for Montreal's island.